Freedom, Oklahoma
Current Conditions -  °F | °C
As of 4:50 AM on Saturday 25 Oct 2014 (Local Time) from KAVK Reporting Station
Clear Clear  
Wind Chill: 14°   Ceiling: Unl
Heat Index: 14°   Visibility: 8mi
Dew Point: 14°   Wind: 6mph
Humidity: 100%   Direction: 240°WSW
Pressure: 30.04"   Gusts: NA
Location:  36.77°N, 99.11°W
Report Text: KAVK 250950Z AUTO 24005KT 8SM CLR 14/14 A3004 RMK AO2
Loading
Personal Weather Stations






























Interactive Weather Map
Tropical Storm Tracking
New forecast layout! Learn more

10-Day Weather Forecast

Advertisements
Track Severe Weather on mobile